sensor_id;sensor_type;location;lat;lon;timestamp;temperature;humidity
75430;DHT22;64127;51.488;5.462;2022-11-18T00:01:11;10.90;99.90
75430;DHT22;64127;51.488;5.462;2022-11-18T00:03:45;10.90;99.90
75430;DHT22;64127;51.488;5.462;2022-11-18T00:06:23;10.90;99.90
75430;DHT22;64127;51.488;5.462;2022-11-18T00:08:57;10.90;99.90
75430;DHT22;64127;51.488;5.462;2022-11-18T00:11:30;10.90;99.90
75430;DHT22;64127;51.488;5.462;2022-11-18T00:14:23;10.90;99.90
75430;DHT22;64127;51.488;5.462;2022-11-18T00:17:03;10.90;99.90
75430;DHT22;64127;51.488;5.462;2022-11-18T00:19:38;10.80;99.90
75430;DHT22;64127;51.488;5.462;2022-11-18T00:22:11;10.80;99.90
75430;DHT22;64127;51.488;5.462;2022-11-18T00:24:44;10.80;99.90
75430;DHT22;64127;51.488;5.462;2022-11-18T00:27:16;10.80;99.90
75430;DHT22;64127;51.488;5.462;2022-11-18T00:29:48;10.80;99.90
75430;DHT22;64127;51.488;5.462;2022-11-18T00:32:20;10.80;99.90
75430;DHT22;64127;51.488;5.462;2022-11-18T00:34:52;10.80;99.90
75430;DHT22;64127;51.488;5.462;2022-11-18T00:37:24;10.80;99.90
75430;DHT22;64127;51.488;5.462;2022-11-18T00:39:55;10.80;99.90
75430;DHT22;64127;51.488;5.462;2022-11-18T00:42:27;10.80;99.90
75430;DHT22;64127;51.488;5.462;2022-11-18T00:45:19;10.80;99.90
75430;DHT22;64127;51.488;5.462;2022-11-18T00:47:52;10.80;99.90
75430;DHT22;64127;51.488;5.462;2022-11-18T00:50:24;10.90;99.90
75430;DHT22;64127;51.488;5.462;2022-11-18T00:52:56;10.90;99.90
75430;DHT22;64127;51.488;5.462;2022-11-18T00:55:28;10.90;99.90
75430;DHT22;64127;51.488;5.462;2022-11-18T00:58:00;10.90;99.90
75430;DHT22;64127;51.488;5.462;2022-11-18T01:00:32;10.90;99.90
75430;DHT22;64127;51.488;5.462;2022-11-18T01:03:04;10.90;99.90
75430;DHT22;64127;51.488;5.462;2022-11-18T01:05:36;10.90;99.90
75430;DHT22;64127;51.488;5.462;2022-11-18T01:08:10;10.90;99.90
75430;DHT22;64127;51.488;5.462;2022-11-18T01:10:44;11.00;99.90
75430;DHT22;64127;51.488;5.462;2022-11-18T01:13:19;11.00;99.90
75430;DHT22;64127;51.488;5.462;2022-11-18T01:15:56;11.00;99.90
75430;DHT22;64127;51.488;5.462;2022-11-18T01:18:30;11.00;99.90
75430;DHT22;64127;51.488;5.462;2022-11-18T01:21:03;11.00;99.90
75430;DHT22;64127;51.488;5.462;2022-11-18T01:23:35;11.00;99.90
75430;DHT22;64127;51.488;5.462;2022-11-18T01:26:09;11.00;99.90
75430;DHT22;64127;51.488;5.462;2022-11-18T01:28:43;11.00;99.90
75430;DHT22;64127;51.488;5.462;2022-11-18T01:31:17;11.00;99.90
75430;DHT22;64127;51.488;5.462;2022-11-18T01:33:50;11.10;99.90
75430;DHT22;64127;51.488;5.462;2022-11-18T01:36:25;11.10;99.90
75430;DHT22;64127;51.488;5.462;2022-11-18T01:38:59;11.10;99.90
75430;DHT22;64127;51.488;5.462;2022-11-18T01:41:31;11.10;99.90
75430;DHT22;64127;51.488;5.462;2022-11-18T01:44:49;11.10;99.90
75430;DHT22;64127;51.488;5.462;2022-11-18T01:47:15;11.10;99.90
75430;DHT22;64127;51.488;5.462;2022-11-18T01:49:47;11.10;99.90
75430;DHT22;64127;51.488;5.462;2022-11-18T01:52:20;11.10;99.90
75430;DHT22;64127;51.488;5.462;2022-11-18T01:54:58;11.10;99.90
75430;DHT22;64127;51.488;5.462;2022-11-18T01:57:36;11.10;99.90
75430;DHT22;64127;51.488;5.462;2022-11-18T02:00:08;11.10;99.90
75430;DHT22;64127;51.488;5.462;2022-11-18T02:02:41;11.10;99.90
75430;DHT22;64127;51.488;5.462;2022-11-18T02:05:13;11.10;99.90
75430;DHT22;64127;51.488;5.462;2022-11-18T02:07:47;11.10;99.90
75430;DHT22;64127;51.488;5.462;2022-11-18T02:10:22;11.10;99.90
75430;DHT22;64127;51.488;5.462;2022-11-18T02:12:56;11.10;99.90
75430;DHT22;64127;51.488;5.462;2022-11-18T02:18:42;11.10;99.90
75430;DHT22;64127;51.488;5.462;2022-11-18T02:30:18;11.20;99.90
75430;DHT22;64127;51.488;5.462;2022-11-18T02:33:07;11.20;99.90
75430;DHT22;64127;51.488;5.462;2022-11-18T02:35:46;11.20;99.90
75430;DHT22;64127;51.488;5.462;2022-11-18T02:38:31;11.20;99.90
75430;DHT22;64127;51.488;5.462;2022-11-18T02:41:11;11.30;99.90
75430;DHT22;64127;51.488;5.462;2022-11-18T02:43:50;11.30;99.90
75430;DHT22;64127;51.488;5.462;2022-11-18T02:46:30;11.30;99.90
75430;DHT22;64127;51.488;5.462;2022-11-18T02:49:17;11.30;99.90
75430;DHT22;64127;51.488;5.462;2022-11-18T02:51:55;11.30;99.90
75430;DHT22;64127;51.488;5.462;2022-11-18T02:54:28;11.30;99.90
75430;DHT22;64127;51.488;5.462;2022-11-18T02:57:01;11.30;99.90
75430;DHT22;64127;51.488;5.462;2022-11-18T02:59:35;11.30;99.90
75430;DHT22;64127;51.488;5.462;2022-11-18T03:02:09;11.30;99.90
75430;DHT22;64127;51.488;5.462;2022-11-18T03:04:48;11.30;99.90
75430;DHT22;64127;51.488;5.462;2022-11-18T03:07:29;11.30;99.90
75430;DHT22;64127;51.488;5.462;2022-11-18T03:10:05;11.30;99.90
75430;DHT22;64127;51.488;5.462;2022-11-18T03:12:53;11.30;99.90
75430;DHT22;64127;51.488;5.462;2022-11-18T03:16:04;11.30;99.90
75430;DHT22;64127;51.488;5.462;2022-11-18T03:18:53;11.30;99.90
75430;DHT22;64127;51.488;5.462;2022-11-18T03:21:40;11.30;99.90
75430;DHT22;64127;51.488;5.462;2022-11-18T03:24:21;11.30;99.90
75430;DHT22;64127;51.488;5.462;2022-11-18T03:27:25;11.30;99.90
75430;DHT22;64127;51.488;5.462;2022-11-18T03:30:06;11.30;99.90
75430;DHT22;64127;51.488;5.462;2022-11-18T03:32:43;11.30;99.90
75430;DHT22;64127;51.488;5.462;2022-11-18T03:35:23;11.30;99.90
75430;DHT22;64127;51.488;5.462;2022-11-18T03:38:07;11.20;99.90
75430;DHT22;64127;51.488;5.462;2022-11-18T03:40:50;11.20;99.90
75430;DHT22;64127;51.488;5.462;2022-11-18T03:43:33;11.20;99.90
75430;DHT22;64127;51.488;5.462;2022-11-18T03:49:28;11.20;99.90
75430;DHT22;64127;51.488;5.462;2022-11-18T03:52:09;11.20;99.90
75430;DHT22;64127;51.488;5.462;2022-11-18T03:54:47;11.20;99.90
75430;DHT22;64127;51.488;5.462;2022-11-18T04:00:43;11.20;99.90
75430;DHT22;64127;51.488;5.462;2022-11-18T04:03:18;11.20;99.90
75430;DHT22;64127;51.488;5.462;2022-11-18T04:06:02;11.20;99.90
75430;DHT22;64127;51.488;5.462;2022-11-18T04:08:42;11.20;99.90
75430;DHT22;64127;51.488;5.462;2022-11-18T04:11:24;11.10;99.90
75430;DHT22;64127;51.488;5.462;2022-11-18T04:14:19;11.10;99.90
75430;DHT22;64127;51.488;5.462;2022-11-18T04:16:51;11.10;99.90
75430;DHT22;64127;51.488;5.462;2022-11-18T04:19:27;11.10;99.90
75430;DHT22;64127;51.488;5.462;2022-11-18T04:21:58;11.10;99.90
75430;DHT22;64127;51.488;5.462;2022-11-18T04:24:30;11.10;99.90
75430;DHT22;64127;51.488;5.462;2022-11-18T04:27:03;11.10;99.90
75430;DHT22;64127;51.488;5.462;2022-11-18T04:29:35;11.10;99.90
75430;DHT22;64127;51.488;5.462;2022-11-18T04:32:08;11.00;99.90
75430;DHT22;64127;51.488;5.462;2022-11-18T04:34:40;11.00;99.90
75430;DHT22;64127;51.488;5.462;2022-11-18T04:37:11;11.00;99.90
75430;DHT22;64127;51.488;5.462;2022-11-18T04:39:43;11.00;99.90
75430;DHT22;64127;51.488;5.462;2022-11-18T04:42:16;10.90;99.90
75430;DHT22;64127;51.488;5.462;2022-11-18T04:44:48;10.90;99.90
75430;DHT22;64127;51.488;5.462;2022-11-18T04:47:20;10.90;99.90
75430;DHT22;64127;51.488;5.462;2022-11-18T04:49:52;10.90;99.90
75430;DHT22;64127;51.488;5.462;2022-11-18T04:52:24;10.80;99.90
75430;DHT22;64127;51.488;5.462;2022-11-18T04:54:56;10.80;99.90
75430;DHT22;64127;51.488;5.462;2022-11-18T04:57:28;10.80;99.90
75430;DHT22;64127;51.488;5.462;2022-11-18T04:59:59;10.80;99.90
75430;DHT22;64127;51.488;5.462;2022-11-18T05:02:32;10.80;99.90
75430;DHT22;64127;51.488;5.462;2022-11-18T05:05:04;10.70;99.90
75430;DHT22;64127;51.488;5.462;2022-11-18T05:07:36;10.70;99.90
75430;DHT22;64127;51.488;5.462;2022-11-18T05:10:08;10.70;99.90
75430;DHT22;64127;51.488;5.462;2022-11-18T05:12:40;10.70;99.90
75430;DHT22;64127;51.488;5.462;2022-11-18T05:15:23;10.60;99.90
75430;DHT22;64127;51.488;5.462;2022-11-18T05:17:55;10.60;99.90
75430;DHT22;64127;51.488;5.462;2022-11-18T05:20:27;10.60;99.90
75430;DHT22;64127;51.488;5.462;2022-11-18T05:22:59;10.60;99.90
75430;DHT22;64127;51.488;5.462;2022-11-18T05:25:30;10.60;99.90
75430;DHT22;64127;51.488;5.462;2022-11-18T05:28:02;10.60;99.90
75430;DHT22;64127;51.488;5.462;2022-11-18T05:30:35;10.50;99.90
75430;DHT22;64127;51.488;5.462;2022-11-18T05:33:06;10.50;99.90
75430;DHT22;64127;51.488;5.462;2022-11-18T05:35:38;10.50;99.90
75430;DHT22;64127;51.488;5.462;2022-11-18T05:38:10;10.50;99.90
75430;DHT22;64127;51.488;5.462;2022-11-18T05:40:42;10.50;99.90
75430;DHT22;64127;51.488;5.462;2022-11-18T05:43:14;10.50;99.90
75430;DHT22;64127;51.488;5.462;2022-11-18T05:45:49;10.50;99.90
75430;DHT22;64127;51.488;5.462;2022-11-18T05:48:21;10.40;99.90
75430;DHT22;64127;51.488;5.462;2022-11-18T05:50:54;10.40;99.90
75430;DHT22;64127;51.488;5.462;2022-11-18T05:53:26;10.40;99.90
75430;DHT22;64127;51.488;5.462;2022-11-18T05:56:22;10.40;99.90
75430;DHT22;64127;51.488;5.462;2022-11-18T05:58:50;10.40;99.90
75430;DHT22;64127;51.488;5.462;2022-11-18T06:01:26;10.40;99.90
75430;DHT22;64127;51.488;5.462;2022-11-18T06:04:05;10.40;99.90
75430;DHT22;64127;51.488;5.462;2022-11-18T06:06:43;10.30;99.90
75430;DHT22;64127;51.488;5.462;2022-11-18T06:09:22;10.30;99.90
75430;DHT22;64127;51.488;5.462;2022-11-18T06:11:58;10.30;99.90
75430;DHT22;64127;51.488;5.462;2022-11-18T06:14:42;10.30;99.90
75430;DHT22;64127;51.488;5.462;2022-11-18T06:17:23;10.30;99.90
75430;DHT22;64127;51.488;5.462;2022-11-18T06:20:01;10.30;99.90
75430;DHT22;64127;51.488;5.462;2022-11-18T06:22:34;10.20;99.90
75430;DHT22;64127;51.488;5.462;2022-11-18T06:25:07;10.20;99.90
75430;DHT22;64127;51.488;5.462;2022-11-18T06:27:39;10.20;99.90
75430;DHT22;64127;51.488;5.462;2022-11-18T06:30:14;10.20;99.90
75430;DHT22;64127;51.488;5.462;2022-11-18T06:32:46;10.10;99.90
75430;DHT22;64127;51.488;5.462;2022-11-18T06:35:18;10.10;99.90
75430;DHT22;64127;51.488;5.462;2022-11-18T06:37:50;10.10;99.90
75430;DHT22;64127;51.488;5.462;2022-11-18T06:40:22;10.10;99.90
75430;DHT22;64127;51.488;5.462;2022-11-18T06:42:54;10.10;99.90
75430;DHT22;64127;51.488;5.462;2022-11-18T06:45:44;10.10;99.90
75430;DHT22;64127;51.488;5.462;2022-11-18T06:48:40;10.10;99.90
75430;DHT22;64127;51.488;5.462;2022-11-18T06:51:11;10.00;99.90
75430;DHT22;64127;51.488;5.462;2022-11-18T06:53:44;10.00;99.90
75430;DHT22;64127;51.488;5.462;2022-11-18T06:56:17;10.00;99.90
75430;DHT22;64127;51.488;5.462;2022-11-18T06:58:55;10.00;99.90
75430;DHT22;64127;51.488;5.462;2022-11-18T07:01:30;10.00;99.90
75430;DHT22;64127;51.488;5.462;2022-11-18T07:04:05;9.90;99.90
75430;DHT22;64127;51.488;5.462;2022-11-18T07:06:37;9.90;99.90
75430;DHT22;64127;51.488;5.462;2022-11-18T07:09:09;10.00;99.90
75430;DHT22;64127;51.488;5.462;2022-11-18T07:11:41;9.90;99.90
75430;DHT22;64127;51.488;5.462;2022-11-18T07:14:13;9.90;99.90
75430;DHT22;64127;51.488;5.462;2022-11-18T07:16:45;9.90;99.90
75430;DHT22;64127;51.488;5.462;2022-11-18T07:19:17;9.90;99.90
75430;DHT22;64127;51.488;5.462;2022-11-18T07:21:49;9.90;99.90
75430;DHT22;64127;51.488;5.462;2022-11-18T07:24:21;9.90;99.90
75430;DHT22;64127;51.488;5.462;2022-11-18T07:26:53;9.90;99.90
75430;DHT22;64127;51.488;5.462;2022-11-18T07:29:25;9.90;99.90
75430;DHT22;64127;51.488;5.462;2022-11-18T07:31:57;9.90;99.90
75430;DHT22;64127;51.488;5.462;2022-11-18T07:34:29;9.80;99.90
75430;DHT22;64127;51.488;5.462;2022-11-18T07:37:01;9.90;99.90
75430;DHT22;64127;51.488;5.462;2022-11-18T07:39:33;9.90;99.90
75430;DHT22;64127;51.488;5.462;2022-11-18T07:42:05;9.90;99.90
75430;DHT22;64127;51.488;5.462;2022-11-18T07:44:37;9.80;99.90
75430;DHT22;64127;51.488;5.462;2022-11-18T07:47:09;9.90;99.90
75430;DHT22;64127;51.488;5.462;2022-11-18T07:49:41;9.90;99.90
75430;DHT22;64127;51.488;5.462;2022-11-18T07:52:13;9.90;99.90
75430;DHT22;64127;51.488;5.462;2022-11-18T07:54:45;9.90;99.90
75430;DHT22;64127;51.488;5.462;2022-11-18T07:57:17;10.00;99.90
75430;DHT22;64127;51.488;5.462;2022-11-18T07:59:49;10.00;99.90
75430;DHT22;64127;51.488;5.462;2022-11-18T08:02:21;10.10;99.90
75430;DHT22;64127;51.488;5.462;2022-11-18T08:04:54;10.10;99.90
75430;DHT22;64127;51.488;5.462;2022-11-18T08:07:26;10.10;99.90
75430;DHT22;64127;51.488;5.462;2022-11-18T08:09:58;10.20;99.90
75430;DHT22;64127;51.488;5.462;2022-11-18T08:12:30;10.30;99.90
75430;DHT22;64127;51.488;5.462;2022-11-18T08:15:02;10.50;99.90
75430;DHT22;64127;51.488;5.462;2022-11-18T08:17:34;10.60;99.90
75430;DHT22;64127;51.488;5.462;2022-11-18T08:20:07;10.80;99.90
75430;DHT22;64127;51.488;5.462;2022-11-18T08:22:39;11.00;99.90
75430;DHT22;64127;51.488;5.462;2022-11-18T08:25:11;11.00;99.90
75430;DHT22;64127;51.488;5.462;2022-11-18T08:27:43;11.00;99.90
75430;DHT22;64127;51.488;5.462;2022-11-18T08:30:15;10.90;99.90
75430;DHT22;64127;51.488;5.462;2022-11-18T08:32:47;10.80;99.90
75430;DHT22;64127;51.488;5.462;2022-11-18T08:35:19;10.70;99.90
75430;DHT22;64127;51.488;5.462;2022-11-18T08:37:52;10.60;99.90
75430;DHT22;64127;51.488;5.462;2022-11-18T08:40:25;10.50;99.90
75430;DHT22;64127;51.488;5.462;2022-11-18T08:42:57;10.50;99.90
75430;DHT22;64127;51.488;5.462;2022-11-18T08:45:29;10.40;99.90
75430;DHT22;64127;51.488;5.462;2022-11-18T08:48:01;10.50;99.90
75430;DHT22;64127;51.488;5.462;2022-11-18T08:50:33;10.50;99.90
75430;DHT22;64127;51.488;5.462;2022-11-18T08:53:05;10.50;99.90
75430;DHT22;64127;51.488;5.462;2022-11-18T08:55:37;10.50;99.90
75430;DHT22;64127;51.488;5.462;2022-11-18T08:58:08;10.50;99.90
75430;DHT22;64127;51.488;5.462;2022-11-18T09:00:40;10.50;99.90
75430;DHT22;64127;51.488;5.462;2022-11-18T09:03:12;10.50;99.90
75430;DHT22;64127;51.488;5.462;2022-11-18T09:05:44;10.60;99.90
75430;DHT22;64127;51.488;5.462;2022-11-18T09:08:16;10.60;99.90
75430;DHT22;64127;51.488;5.462;2022-11-18T09:10:48;10.60;99.90
75430;DHT22;64127;51.488;5.462;2022-11-18T09:13:20;10.70;99.90
75430;DHT22;64127;51.488;5.462;2022-11-18T09:16:12;10.70;99.90
75430;DHT22;64127;51.488;5.462;2022-11-18T09:18:45;10.80;99.90
75430;DHT22;64127;51.488;5.462;2022-11-18T09:21:17;10.90;99.90
75430;DHT22;64127;51.488;5.462;2022-11-18T09:23:49;10.90;99.90
75430;DHT22;64127;51.488;5.462;2022-11-18T09:26:22;11.20;99.90
75430;DHT22;64127;51.488;5.462;2022-11-18T09:28:54;11.60;99.90
75430;DHT22;64127;51.488;5.462;2022-11-18T09:31:26;11.80;99.90
75430;DHT22;64127;51.488;5.462;2022-11-18T09:33:59;11.90;99.90
75430;DHT22;64127;51.488;5.462;2022-11-18T09:36:32;11.90;99.90
75430;DHT22;64127;51.488;5.462;2022-11-18T09:39:03;12.10;99.90
75430;DHT22;64127;51.488;5.462;2022-11-18T09:42:04;12.60;99.90
75430;DHT22;64127;51.488;5.462;2022-11-18T09:44:49;13.20;99.90
75430;DHT22;64127;51.488;5.462;2022-11-18T09:50:08;14.00;99.90
75430;DHT22;64127;51.488;5.462;2022-11-18T09:53:17;14.20;99.90
75430;DHT22;64127;51.488;5.462;2022-11-18T09:55:51;14.60;99.90
75430;DHT22;64127;51.488;5.462;2022-11-18T09:58:33;14.70;99.90
75430;DHT22;64127;51.488;5.462;2022-11-18T10:01:17;14.30;99.90
75430;DHT22;64127;51.488;5.462;2022-11-18T10:03:51;13.70;99.90
75430;DHT22;64127;51.488;5.462;2022-11-18T10:06:25;13.30;99.90
75430;DHT22;64127;51.488;5.462;2022-11-18T10:15:28;12.40;99.90
75430;DHT22;64127;51.488;5.462;2022-11-18T10:21:35;12.10;99.90
75430;DHT22;64127;51.488;5.462;2022-11-18T10:24:49;12.00;99.90
75430;DHT22;64127;51.488;5.462;2022-11-18T10:27:26;12.00;99.90
75430;DHT22;64127;51.488;5.462;2022-11-18T10:30:20;12.10;99.90
75430;DHT22;64127;51.488;5.462;2022-11-18T10:35:36;12.00;99.90
75430;DHT22;64127;51.488;5.462;2022-11-18T10:43:53;11.90;99.90
75430;DHT22;64127;51.488;5.462;2022-11-18T10:46:30;11.80;99.90
75430;DHT22;64127;51.488;5.462;2022-11-18T10:52:08;11.80;99.90
75430;DHT22;64127;51.488;5.462;2022-11-18T10:54:43;11.80;99.90
75430;DHT22;64127;51.488;5.462;2022-11-18T10:57:18;11.80;99.90
75430;DHT22;64127;51.488;5.462;2022-11-18T10:59:55;11.80;99.90
75430;DHT22;64127;51.488;5.462;2022-11-18T11:02:31;11.80;99.90
75430;DHT22;64127;51.488;5.462;2022-11-18T11:05:22;11.80;99.90
75430;DHT22;64127;51.488;5.462;2022-11-18T11:11:22;11.80;99.90
75430;DHT22;64127;51.488;5.462;2022-11-18T11:17:09;11.90;99.90
75430;DHT22;64127;51.488;5.462;2022-11-18T11:20:05;11.90;99.90
75430;DHT22;64127;51.488;5.462;2022-11-18T11:22:46;11.90;99.90
75430;DHT22;64127;51.488;5.462;2022-11-18T11:25:25;12.00;99.90
75430;DHT22;64127;51.488;5.462;2022-11-18T11:28:43;12.00;99.90
75430;DHT22;64127;51.488;5.462;2022-11-18T11:34:31;12.10;99.90
75430;DHT22;64127;51.488;5.462;2022-11-18T11:49:17;12.20;99.90
75430;DHT22;64127;51.488;5.462;2022-11-18T11:52:28;12.30;99.90
75430;DHT22;64127;51.488;5.462;2022-11-18T12:04:17;12.30;99.90
75430;DHT22;64127;51.488;5.462;2022-11-18T12:07:05;12.30;99.90
75430;DHT22;64127;51.488;5.462;2022-11-18T12:13:20;12.60;99.90
75430;DHT22;64127;51.488;5.462;2022-11-18T12:19:15;12.80;99.90
75430;DHT22;64127;51.488;5.462;2022-11-18T12:21:55;12.90;99.90
75430;DHT22;64127;51.488;5.462;2022-11-18T12:27:04;13.50;99.90
75430;DHT22;64127;51.488;5.462;2022-11-18T12:32:39;13.90;99.90
75430;DHT22;64127;51.488;5.462;2022-11-18T12:35:21;13.80;99.90
75430;DHT22;64127;51.488;5.462;2022-11-18T12:37:58;13.50;99.90
75430;DHT22;64127;51.488;5.462;2022-11-18T12:40:43;13.30;99.90
75430;DHT22;64127;51.488;5.462;2022-11-18T12:51:54;12.90;99.90
75430;DHT22;64127;51.488;5.462;2022-11-18T12:54:46;12.80;99.90
75430;DHT22;64127;51.488;5.462;2022-11-18T12:57:25;12.90;99.90
75430;DHT22;64127;51.488;5.462;2022-11-18T13:00:28;13.10;99.90
75430;DHT22;64127;51.488;5.462;2022-11-18T13:03:01;13.10;99.90
75430;DHT22;64127;51.488;5.462;2022-11-18T13:05:34;13.10;99.90
75430;DHT22;64127;51.488;5.462;2022-11-18T13:08:10;13.00;99.90
75430;DHT22;64127;51.488;5.462;2022-11-18T13:10:48;13.00;99.90
75430;DHT22;64127;51.488;5.462;2022-11-18T13:13:31;12.90;99.90
75430;DHT22;64127;51.488;5.462;2022-11-18T13:16:21;12.80;99.90
75430;DHT22;64127;51.488;5.462;2022-11-18T13:19:23;12.80;99.90
75430;DHT22;64127;51.488;5.462;2022-11-18T13:21:59;12.80;99.90
75430;DHT22;64127;51.488;5.462;2022-11-18T13:24:51;12.70;99.90
75430;DHT22;64127;51.488;5.462;2022-11-18T13:27:29;12.70;99.90
75430;DHT22;64127;51.488;5.462;2022-11-18T13:30:12;12.70;99.90
75430;DHT22;64127;51.488;5.462;2022-11-18T13:32:46;12.70;99.90
75430;DHT22;64127;51.488;5.462;2022-11-18T13:35:23;12.70;99.90
75430;DHT22;64127;51.488;5.462;2022-11-18T13:38:00;12.70;99.90
75430;DHT22;64127;51.488;5.462;2022-11-18T13:40:45;12.70;99.90
75430;DHT22;64127;51.488;5.462;2022-11-18T13:43:35;12.70;99.90
75430;DHT22;64127;51.488;5.462;2022-11-18T13:46:14;12.70;99.90
75430;DHT22;64127;51.488;5.462;2022-11-18T13:48:55;12.70;99.90
75430;DHT22;64127;51.488;5.462;2022-11-18T13:51:30;12.70;99.90
75430;DHT22;64127;51.488;5.462;2022-11-18T13:54:02;12.70;99.90
75430;DHT22;64127;51.488;5.462;2022-11-18T13:56:34;12.70;99.90
75430;DHT22;64127;51.488;5.462;2022-11-18T13:59:18;12.70;99.90
75430;DHT22;64127;51.488;5.462;2022-11-18T14:01:54;12.70;99.90
75430;DHT22;64127;51.488;5.462;2022-11-18T14:04:30;12.70;99.90
75430;DHT22;64127;51.488;5.462;2022-11-18T14:07:36;12.70;99.90
75430;DHT22;64127;51.488;5.462;2022-11-18T14:10:13;12.70;99.90
75430;DHT22;64127;51.488;5.462;2022-11-18T14:12:59;12.70;99.90
75430;DHT22;64127;51.488;5.462;2022-11-18T14:15:34;12.60;99.90
75430;DHT22;64127;51.488;5.462;2022-11-18T14:18:26;12.60;99.90
75430;DHT22;64127;51.488;5.462;2022-11-18T14:21:03;12.60;99.90
75430;DHT22;64127;51.488;5.462;2022-11-18T14:23:36;12.60;99.90
75430;DHT22;64127;51.488;5.462;2022-11-18T14:26:28;12.60;99.90
75430;DHT22;64127;51.488;5.462;2022-11-18T14:29:18;12.50;99.90
75430;DHT22;64127;51.488;5.462;2022-11-18T14:32:13;12.50;99.90
75430;DHT22;64127;51.488;5.462;2022-11-18T14:34:57;12.50;99.90
75430;DHT22;64127;51.488;5.462;2022-11-18T14:37:31;12.50;99.90
75430;DHT22;64127;51.488;5.462;2022-11-18T14:40:03;12.50;99.90
75430;DHT22;64127;51.488;5.462;2022-11-18T14:42:35;12.60;99.90
75430;DHT22;64127;51.488;5.462;2022-11-18T14:45:10;12.50;99.90
75430;DHT22;64127;51.488;5.462;2022-11-18T14:47:43;12.50;99.90
75430;DHT22;64127;51.488;5.462;2022-11-18T14:50:15;12.50;99.90
75430;DHT22;64127;51.488;5.462;2022-11-18T14:52:48;12.50;99.90
75430;DHT22;64127;51.488;5.462;2022-11-18T14:55:19;12.50;99.90
75430;DHT22;64127;51.488;5.462;2022-11-18T14:57:51;12.50;99.90
75430;DHT22;64127;51.488;5.462;2022-11-18T15:00:23;12.50;99.90
75430;DHT22;64127;51.488;5.462;2022-11-18T15:02:55;12.50;99.90
75430;DHT22;64127;51.488;5.462;2022-11-18T15:05:27;12.50;99.90
75430;DHT22;64127;51.488;5.462;2022-11-18T15:07:59;12.50;99.90
75430;DHT22;64127;51.488;5.462;2022-11-18T15:10:32;12.50;99.90
75430;DHT22;64127;51.488;5.462;2022-11-18T15:13:05;12.40;99.90
75430;DHT22;64127;51.488;5.462;2022-11-18T15:15:37;12.30;99.90
75430;DHT22;64127;51.488;5.462;2022-11-18T15:18:09;12.30;99.90
75430;DHT22;64127;51.488;5.462;2022-11-18T15:20:40;12.20;99.90
75430;DHT22;64127;51.488;5.462;2022-11-18T15:23:12;12.20;99.90
75430;DHT22;64127;51.488;5.462;2022-11-18T15:25:44;12.20;99.90
75430;DHT22;64127;51.488;5.462;2022-11-18T15:28:16;12.20;99.90
75430;DHT22;64127;51.488;5.462;2022-11-18T15:30:48;12.20;99.90
75430;DHT22;64127;51.488;5.462;2022-11-18T15:33:20;12.20;99.90
75430;DHT22;64127;51.488;5.462;2022-11-18T15:35:52;12.20;99.90
75430;DHT22;64127;51.488;5.462;2022-11-18T15:38:24;12.20;99.90
75430;DHT22;64127;51.488;5.462;2022-11-18T15:40:56;12.20;99.90
75430;DHT22;64127;51.488;5.462;2022-11-18T15:43:28;12.20;99.90
75430;DHT22;64127;51.488;5.462;2022-11-18T15:46:00;12.20;99.90
75430;DHT22;64127;51.488;5.462;2022-11-18T15:48:32;12.20;99.90
75430;DHT22;64127;51.488;5.462;2022-11-18T15:51:05;12.30;99.90
75430;DHT22;64127;51.488;5.462;2022-11-18T15:53:42;12.30;99.90
75430;DHT22;64127;51.488;5.462;2022-11-18T15:59:00;12.20;99.90
75430;DHT22;64127;51.488;5.462;2022-11-18T16:01:45;12.30;99.90
75430;DHT22;64127;51.488;5.462;2022-11-18T16:04:19;12.20;99.90
75430;DHT22;64127;51.488;5.462;2022-11-18T16:06:52;12.20;99.90
75430;DHT22;64127;51.488;5.462;2022-11-18T16:09:24;12.30;99.90
75430;DHT22;64127;51.488;5.462;2022-11-18T16:12:16;12.30;99.90
75430;DHT22;64127;51.488;5.462;2022-11-18T16:15:07;12.20;99.90
75430;DHT22;64127;51.488;5.462;2022-11-18T16:17:57;12.20;99.90
75430;DHT22;64127;51.488;5.462;2022-11-18T16:20:30;12.20;99.90
75430;DHT22;64127;51.488;5.462;2022-11-18T16:23:02;12.20;99.90
75430;DHT22;64127;51.488;5.462;2022-11-18T16:25:34;12.20;99.90
75430;DHT22;64127;51.488;5.462;2022-11-18T16:28:06;12.20;99.90
75430;DHT22;64127;51.488;5.462;2022-11-18T16:30:38;12.20;99.90
75430;DHT22;64127;51.488;5.462;2022-11-18T16:33:29;12.20;99.90
75430;DHT22;64127;51.488;5.462;2022-11-18T16:36:01;12.20;99.90
75430;DHT22;64127;51.488;5.462;2022-11-18T16:38:33;12.20;99.90
75430;DHT22;64127;51.488;5.462;2022-11-18T16:41:05;12.20;99.90
75430;DHT22;64127;51.488;5.462;2022-11-18T16:44:04;12.20;99.90
75430;DHT22;64127;51.488;5.462;2022-11-18T16:46:40;12.20;99.90
75430;DHT22;64127;51.488;5.462;2022-11-18T16:49:17;12.20;99.90
75430;DHT22;64127;51.488;5.462;2022-11-18T16:51:53;12.20;99.90
75430;DHT22;64127;51.488;5.462;2022-11-18T16:54:26;12.20;99.90
75430;DHT22;64127;51.488;5.462;2022-11-18T16:57:00;12.20;99.90
75430;DHT22;64127;51.488;5.462;2022-11-18T16:59:32;12.20;99.90
75430;DHT22;64127;51.488;5.462;2022-11-18T17:02:04;12.20;99.90
75430;DHT22;64127;51.488;5.462;2022-11-18T17:04:37;12.20;99.90
75430;DHT22;64127;51.488;5.462;2022-11-18T17:07:09;12.10;99.90
75430;DHT22;64127;51.488;5.462;2022-11-18T17:09:41;12.10;99.90
75430;DHT22;64127;51.488;5.462;2022-11-18T17:12:13;12.10;99.90
75430;DHT22;64127;51.488;5.462;2022-11-18T17:14:45;12.10;99.90
75430;DHT22;64127;51.488;5.462;2022-11-18T17:17:17;12.10;99.90
75430;DHT22;64127;51.488;5.462;2022-11-18T17:19:49;12.10;99.90
75430;DHT22;64127;51.488;5.462;2022-11-18T17:22:21;12.10;99.90
75430;DHT22;64127;51.488;5.462;2022-11-18T17:24:53;12.10;99.90
75430;DHT22;64127;51.488;5.462;2022-11-18T17:27:25;12.10;99.90
75430;DHT22;64127;51.488;5.462;2022-11-18T17:29:57;12.10;99.90
75430;DHT22;64127;51.488;5.462;2022-11-18T17:32:29;12.10;99.90
75430;DHT22;64127;51.488;5.462;2022-11-18T17:35:01;12.10;99.90
75430;DHT22;64127;51.488;5.462;2022-11-18T17:37:33;12.10;99.90
75430;DHT22;64127;51.488;5.462;2022-11-18T17:40:06;12.10;99.90
75430;DHT22;64127;51.488;5.462;2022-11-18T17:42:38;12.10;99.90
75430;DHT22;64127;51.488;5.462;2022-11-18T17:45:10;12.10;99.90
75430;DHT22;64127;51.488;5.462;2022-11-18T17:47:42;12.10;99.90
75430;DHT22;64127;51.488;5.462;2022-11-18T17:50:14;12.10;99.90
75430;DHT22;64127;51.488;5.462;2022-11-18T17:52:47;12.10;99.90
75430;DHT22;64127;51.488;5.462;2022-11-18T17:55:19;12.10;99.90
75430;DHT22;64127;51.488;5.462;2022-11-18T17:57:50;12.10;99.90
75430;DHT22;64127;51.488;5.462;2022-11-18T18:00:22;12.00;99.90
75430;DHT22;64127;51.488;5.462;2022-11-18T18:02:54;12.10;99.90
75430;DHT22;64127;51.488;5.462;2022-11-18T18:05:27;12.10;99.90
75430;DHT22;64127;51.488;5.462;2022-11-18T18:07:59;12.10;99.90